Time;durP1;ratioP1;P1;durP2;ratioP2;P2;SDS_P1;SDS_P2;PMS_P1;PMS_P2;Temp;Humidity;BMP_temperature;BMP_pressure;BME280_temperature;BME280_humidity;BME280_pressure;Samples;Min_cycle;Max_cycle;Signal;HPM_P1;HPM_P2
2022/11/10 00:00:22;;;;;;;4.15;2.55;;;;;21.60;100621.00;;;;2070721;28;20206;-46
2022/11/10 00:01:22;;;;;;;6.27;2.77;;;;;21.60;100620.00;;;;2070827;28;20717;-46
2022/11/10 00:02:22;;;;;;;5.23;2.83;;;;;21.60;100627.00;;;;2074194;28;20206;-46
2022/11/10 00:03:23;;;;;;;6.40;2.60;;;;;21.60;100625.00;;;;2077334;28;20228;-46
2022/11/10 00:04:23;;;;;;;4.33;2.50;;;;;21.60;100628.00;;;;2070566;28;20254;-47
2022/11/10 00:05:24;;;;;;;5.30;2.80;;;;;21.60;100634.00;;;;2070411;28;20670;-47
2022/11/10 00:06:24;;;;;;;3.40;2.17;;;;;21.60;100630.00;;;;2070621;28;20588;-46
2022/11/10 00:07:25;;;;;;;5.20;2.87;;;;;21.60;100633.00;;;;2070615;28;20238;-47
2022/11/10 00:08:25;;;;;;;5.93;2.37;;;;;21.60;100633.00;;;;2070668;28;20222;-48
2022/11/10 00:09:25;;;;;;;4.20;2.27;;;;;21.60;100629.00;;;;2077392;28;20455;-47
2022/11/10 00:10:26;;;;;;;6.33;2.50;;;;;21.60;100631.00;;;;2078837;28;20209;-47
2022/11/10 00:11:26;;;;;;;4.07;2.30;;;;;21.60;100635.00;;;;2078839;28;20237;-46
2022/11/10 00:12:26;;;;;;;3.43;2.10;;;;;21.60;100631.00;;;;2077795;28;20271;-47
2022/11/10 00:13:29;;;;;;;4.10;2.20;;;;;21.60;100633.00;;;;2075321;28;20206;-46
2022/11/10 00:17:09;;;;;;;6.15;2.53;;;;;21.60;100643.00;;;;2078722;28;20237;-46
2022/11/10 00:18:09;;;;;;;5.05;2.47;;;;;21.60;100635.00;;;;2079341;28;20213;-46
2022/11/10 00:19:09;;;;;;;5.90;2.80;;;;;21.60;100634.00;;;;2071409;28;20218;-46
2022/11/10 00:20:10;;;;;;;3.40;1.90;;;;;21.60;100648.00;;;;2065341;28;20210;-46
2022/11/10 00:21:10;;;;;;;4.20;2.43;;;;;21.60;100639.00;;;;2072304;28;20217;-47
2022/11/10 00:22:11;;;;;;;4.33;2.70;;;;;21.60;100641.00;;;;2071459;28;20316;-46
2022/11/10 00:23:11;;;;;;;4.97;2.37;;;;;21.60;100640.00;;;;2072108;28;20731;-46
2022/11/10 00:24:11;;;;;;;4.57;2.37;;;;;21.60;100645.00;;;;2074243;28;20853;-46
2022/11/10 00:25:12;;;;;;;4.43;2.43;;;;;21.60;100643.00;;;;2080162;28;23181;-46
2022/11/10 00:26:17;;;;;;;5.60;2.03;;;;;21.60;100649.00;;;;2076727;28;20222;-46
2022/11/10 00:27:17;;;;;;;3.25;2.15;;;;;21.60;100648.00;;;;2072669;28;20272;-46
2022/11/10 00:28:18;;;;;;;4.20;2.07;;;;;21.60;100647.00;;;;2071144;28;20214;-46
2022/11/10 00:29:18;;;;;;;3.30;2.10;;;;;21.60;100651.00;;;;2079826;28;20228;-46
2022/11/10 00:30:18;;;;;;;3.20;1.87;;;;;21.60;100650.00;;;;2080191;28;20245;-46
2022/11/10 00:31:19;;;;;;;6.27;2.23;;;;;21.50;100640.00;;;;2080204;28;20229;-51
2022/11/10 00:32:19;;;;;;;3.70;2.13;;;;;21.50;100640.00;;;;2079484;28;20220;-47
2022/11/10 00:33:19;;;;;;;5.97;2.40;;;;;21.50;100643.00;;;;2080018;28;20219;-47
2022/11/10 00:34:20;;;;;;;4.87;2.30;;;;;21.60;100645.00;;;;2079933;28;20225;-47
2022/11/10 00:35:20;;;;;;;3.50;2.00;;;;;21.60;100648.00;;;;2080385;28;20213;-46
2022/11/10 00:36:20;;;;;;;3.70;1.93;;;;;21.60;100654.00;;;;2080113;28;20217;-47
2022/11/10 00:37:21;;;;;;;5.03;1.80;;;;;21.60;100651.00;;;;2079809;28;20267;-47
2022/11/10 00:38:21;;;;;;;4.50;2.70;;;;;21.60;100652.00;;;;2079619;28;20253;-46
2022/11/10 00:39:21;;;;;;;4.90;1.93;;;;;21.50;100641.00;;;;2080264;28;20223;-47
2022/11/10 00:40:22;;;;;;;3.37;1.80;;;;;21.50;100647.00;;;;2080242;28;20214;-46
2022/11/10 00:41:22;;;;;;;4.93;2.10;;;;;21.50;100645.00;;;;2080239;28;20312;-46
2022/11/10 00:42:22;;;;;;;4.43;2.07;;;;;21.50;100653.00;;;;2079395;28;20205;-46
2022/11/10 00:43:23;;;;;;;4.70;2.03;;;;;21.50;100655.00;;;;2080239;28;20555;-46
2022/11/10 00:44:23;;;;;;;2.73;2.03;;;;;21.60;100655.00;;;;2080038;28;20279;-47
2022/11/10 00:45:23;;;;;;;4.30;1.90;;;;;21.60;100663.00;;;;2080203;28;20213;-47
2022/11/10 00:46:24;;;;;;;3.50;2.17;;;;;21.50;100657.00;;;;2079809;28;20233;-47
2022/11/10 00:47:24;;;;;;;4.00;1.87;;;;;21.60;100658.00;;;;2079936;28;20219;-46
2022/11/10 00:48:24;;;;;;;5.87;2.13;;;;;21.50;100664.00;;;;2079404;28;20214;-47
2022/11/10 00:49:25;;;;;;;5.90;2.20;;;;;21.50;100663.00;;;;2079555;28;20221;-46
2022/11/10 00:50:25;;;;;;;3.77;2.13;;;;;21.50;100661.00;;;;2079559;28;20937;-46
2022/11/10 00:51:26;;;;;;;2.73;1.80;;;;;21.60;100665.00;;;;2072379;28;20245;-46
2022/11/10 00:52:27;;;;;;;4.57;1.70;;;;;21.50;100663.00;;;;2070570;28;20206;-51
2022/11/10 00:53:27;;;;;;;2.83;1.60;;;;;21.50;100668.00;;;;2071683;28;20233;-49
2022/11/10 00:54:27;;;;;;;5.57;2.07;;;;;21.50;100669.00;;;;2071599;28;20224;-50
2022/11/10 00:55:28;;;;;;;3.00;1.87;;;;;21.60;100655.00;;;;2072297;28;20210;-51
2022/11/10 00:56:28;;;;;;;2.70;1.77;;;;;21.50;100665.00;;;;2071636;28;20210;-49
2022/11/10 00:57:28;;;;;;;4.00;1.80;;;;;21.60;100660.00;;;;2071123;28;20214;-47
2022/11/10 00:58:29;;;;;;;3.10;1.93;;;;;21.60;100665.00;;;;2071558;28;20556;-46
2022/11/10 00:59:29;;;;;;;3.67;1.77;;;;;21.60;100659.00;;;;2071462;28;20211;-47
2022/11/10 01:00:29;;;;;;;2.53;1.70;;;;;21.50;100655.00;;;;2071624;28;20218;-47
2022/11/10 01:01:30;;;;;;;3.40;1.90;;;;;21.50;100661.00;;;;2071443;28;20297;-47
2022/11/10 01:02:30;;;;;;;3.13;1.80;;;;;21.50;100661.00;;;;2070532;28;20225;-47
2022/11/10 01:03:31;;;;;;;3.20;1.60;;;;;21.50;100662.00;;;;2070862;28;20222;-48
2022/11/10 01:04:31;;;;;;;4.20;1.63;;;;;21.50;100655.00;;;;2071081;28;20591;-48
2022/11/10 01:05:36;;;;;;;3.87;1.70;;;;;21.50;100668.00;;;;2070108;28;20214;-47
2022/11/10 01:06:36;;;;;;;4.20;2.00;;;;;21.50;100667.00;;;;2071294;28;20209;-47
2022/11/10 01:07:36;;;;;;;3.87;1.77;;;;;21.50;100665.00;;;;2071442;28;20241;-47
2022/11/10 01:08:37;;;;;;;4.50;1.60;;;;;21.50;100670.00;;;;2071282;28;20214;-47
2022/11/10 01:09:37;;;;;;;4.60;1.40;;;;;21.50;100672.00;;;;2071289;28;20222;-47
2022/11/10 01:10:37;;;;;;;4.37;1.90;;;;;21.50;100676.00;;;;2071421;28;20241;-47
2022/11/10 01:11:38;;;;;;;2.43;1.33;;;;;21.50;100673.00;;;;2074958;28;20221;-47
2022/11/10 01:12:38;;;;;;;2.63;1.43;;;;;21.50;100676.00;;;;2078898;28;20736;-47
2022/11/10 01:13:38;;;;;;;2.87;1.70;;;;;21.50;100676.00;;;;2079241;28;20873;-48
2022/11/10 01:14:39;;;;;;;3.70;1.83;;;;;21.50;100673.00;;;;2079265;28;20228;-47
2022/11/10 01:15:40;;;;;;;3.63;1.80;;;;;21.50;100671.00;;;;2079491;28;20209;-47
2022/11/10 01:16:40;;;;;;;4.50;2.20;;;;;21.50;100677.00;;;;2079718;28;20630;-47
2022/11/10 01:17:40;;;;;;;3.50;1.50;;;;;21.50;100676.00;;;;2079528;28;20216;-47
2022/11/10 01:18:41;;;;;;;5.50;1.73;;;;;21.50;100690.00;;;;2079220;28;20213;-47
2022/11/10 01:19:41;;;;;;;5.23;1.60;;;;;21.50;100679.00;;;;2076178;28;20218;-47
2022/11/10 01:20:41;;;;;;;2.63;1.20;;;;;21.50;100706.00;;;;2070997;28;20305;-47
2022/11/10 01:21:42;;;;;;;4.27;1.50;;;;;21.50;100686.00;;;;2072693;28;20624;-48
2022/11/10 01:22:42;;;;;;;3.10;1.70;;;;;21.50;100682.00;;;;2079003;28;20217;-47
2022/11/10 01:23:43;;;;;;;4.07;1.67;;;;;21.50;100687.00;;;;2079266;28;20317;-46
2022/11/10 01:24:43;;;;;;;3.50;1.40;;;;;21.50;100679.00;;;;2079195;28;20870;-47
2022/11/10 01:25:43;;;;;;;4.07;1.70;;;;;21.40;100692.00;;;;2079471;28;20756;-47
2022/11/10 01:26:44;;;;;;;4.00;2.00;;;;;21.50;100695.00;;;;2079961;28;20209;-47
2022/11/10 01:27:44;;;;;;;2.97;1.60;;;;;21.50;100687.00;;;;2079597;28;20214;-48
2022/11/10 01:28:45;;;;;;;3.80;1.50;;;;;21.50;100693.00;;;;2079758;28;20252;-47
2022/11/10 01:29:45;;;;;;;3.13;1.50;;;;;21.50;100694.00;;;;2079515;28;20232;-47
2022/11/10 01:30:46;;;;;;;2.87;1.50;;;;;21.50;100699.00;;;;2079657;28;20217;-47
2022/11/10 01:31:46;;;;;;;5.20;1.77;;;;;21.50;100674.00;;;;2079425;28;20225;-47
2022/11/10 01:32:46;;;;;;;4.40;1.50;;;;;21.50;100697.00;;;;2079286;28;20664;-48
2022/11/10 01:33:47;;;;;;;3.97;1.70;;;;;21.50;100706.00;;;;2071277;28;20981;-47
2022/11/10 01:34:47;;;;;;;4.13;1.80;;;;;21.50;100708.00;;;;2073069;28;20215;-47
2022/11/10 01:35:47;;;;;;;3.13;1.50;;;;;21.40;100700.00;;;;2079629;28;20267;-45
2022/11/10 01:36:48;;;;;;;2.93;1.50;;;;;21.40;100699.00;;;;2079485;28;20290;-47
2022/11/10 01:37:50;;;;;;;3.53;1.70;;;;;21.50;100701.00;;;;2079806;28;20449;-47
2022/11/10 01:38:50;;;;;;;3.53;1.65;;;;;21.10;100704.00;;;;2079894;28;21043;-47
2022/11/10 01:39:51;;;;;;;2.87;1.70;;;;;21.50;100703.00;;;;2079709;28;20291;-47
2022/11/10 01:40:51;;;;;;;4.43;1.90;;;;;21.50;100714.00;;;;2079587;28;20222;-47
2022/11/10 01:41:51;;;;;;;2.30;1.33;;;;;21.40;100704.00;;;;2078764;28;20248;-47
2022/11/10 01:42:53;;;;;;;3.23;1.77;;;;;21.40;100710.00;;;;2079755;28;20217;-46
2022/11/10 01:44:13;;;;;;;3.97;1.60;;;;;21.40;100708.00;;;;2079752;28;20693;-47
2022/11/10 01:45:42;;;;;;;2.55;1.48;;;;;21.40;100705.00;;;;2078509;28;20233;-47
2022/11/10 01:46:42;;;;;;;2.97;1.52;;;;;21.40;100706.00;;;;2076541;28;20209;-47
2022/11/10 01:47:43;;;;;;;2.60;1.53;;;;;21.40;100708.00;;;;2079678;28;20214;-47
2022/11/10 01:48:51;;;;;;;3.90;1.17;;;;;21.40;100707.00;;;;2079805;28;20221;-47
2022/11/10 01:49:51;;;;;;;3.60;1.73;;;;;21.40;100711.00;;;;2079652;28;20312;-47
2022/11/10 01:50:52;;;;;;;3.17;1.53;;;;;21.40;100706.00;;;;2079426;28;20218;-47
2022/11/10 01:52:11;;;;;;;4.03;1.73;;;;;21.40;100717.00;;;;2078412;28;20241;-48
2022/11/10 01:53:16;;;;;;;3.83;1.50;;;;;21.50;100711.00;;;;2074586;28;20221;-48
2022/11/10 01:54:19;;;;;;;4.30;2.10;;;;;21.40;100722.00;;;;2070843;28;20215;-46
2022/11/10 01:55:20;;;;;;;4.68;1.75;;;;;21.40;100720.00;;;;2066501;28;20360;-47
2022/11/10 01:56:20;;;;;;;3.83;1.70;;;;;21.40;100714.00;;;;2062019;28;20771;-47
2022/11/10 01:57:20;;;;;;;4.50;1.30;;;;;21.40;100716.00;;;;2070894;28;20217;-47
2022/11/10 01:58:23;;;;;;;3.70;1.40;;;;;21.40;100711.00;;;;2070750;28;20233;-47
2022/11/10 01:59:26;;;;;;;3.75;1.25;;;;;21.40;100711.00;;;;2070608;28;20214;-47
2022/11/10 02:00:26;;;;;;;4.22;1.35;;;;;21.40;100719.00;;;;2062681;28;20207;-47
2022/11/10 02:01:27;;;;;;;4.77;1.63;;;;;21.40;100710.00;;;;2072760;28;20605;-47
2022/11/10 02:02:30;;;;;;;3.00;1.17;;;;;21.40;100717.00;;;;2078656;28;20217;-47
2022/11/10 02:03:42;;;;;;;2.30;1.17;;;;;21.40;100715.00;;;;2070795;28;20229;-47
2022/11/10 02:04:43;;;;;;;2.50;1.80;;;;;21.40;100715.00;;;;2072378;28;20306;-47
2022/11/10 02:05:43;;;;;;;4.73;1.70;;;;;21.40;100729.00;;;;2078566;28;20228;-48
2022/11/10 02:06:44;;;;;;;4.50;1.80;;;;;21.40;100726.00;;;;2078525;28;20245;-47
2022/11/10 02:07:45;;;;;;;3.58;1.30;;;;;21.40;100729.00;;;;2079433;28;20213;-47
2022/11/10 02:08:45;;;;;;;3.50;1.60;;;;;21.40;100727.00;;;;2079300;28;20213;-47
2022/11/10 02:09:45;;;;;;;2.77;1.20;;;;;21.40;100727.00;;;;2079174;28;20603;-46
2022/11/10 02:10:46;;;;;;;3.43;1.37;;;;;21.40;100724.00;;;;2079154;28;20229;-47
2022/11/10 02:11:46;;;;;;;3.73;1.73;;;;;21.40;100725.00;;;;2079066;28;20210;-47
2022/11/10 02:12:47;;;;;;;3.27;1.47;;;;;21.40;100722.00;;;;2078265;28;20214;-48
2022/11/10 02:13:47;;;;;;;4.43;1.50;;;;;21.40;100721.00;;;;2078579;28;20213;-46
2022/11/10 02:14:48;;;;;;;3.67;1.37;;;;;21.40;100734.00;;;;2077518;28;20445;-47
2022/11/10 02:15:48;;;;;;;3.93;1.50;;;;;21.40;100725.00;;;;2064262;28;20218;-46
2022/11/10 02:16:48;;;;;;;3.10;1.50;;;;;21.40;100738.00;;;;2078716;28;20293;-47
2022/11/10 02:17:49;;;;;;;2.63;1.37;;;;;21.40;100732.00;;;;2078298;28;20213;-48
2022/11/10 02:18:49;;;;;;;4.17;1.70;;;;;21.30;100732.00;;;;2079453;28;20218;-47
2022/11/10 02:19:50;;;;;;;3.90;1.87;;;;;21.40;100735.00;;;;2079469;28;20228;-47
2022/11/10 02:20:50;;;;;;;3.57;1.43;;;;;21.40;100735.00;;;;2067831;28;20234;-47
2022/11/10 02:21:50;;;;;;;3.53;1.40;;;;;21.40;100738.00;;;;2061423;28;20693;-47
2022/11/10 02:22:51;;;;;;;3.33;1.40;;;;;21.30;100743.00;;;;2071177;28;20218;-47
2022/11/10 02:23:52;;;;;;;2.90;1.23;;;;;21.30;100745.00;;;;2070867;28;20264;-47
2022/11/10 02:24:52;;;;;;;2.45;1.20;;;;;21.30;100754.00;;;;2071112;28;20214;-47
2022/11/10 02:25:52;;;;;;;4.00;1.27;;;;;21.30;100739.00;;;;2070681;28;20208;-47
2022/11/10 02:26:53;;;;;;;4.07;1.53;;;;;21.30;100748.00;;;;2071152;28;20244;-47
2022/11/10 02:27:53;;;;;;;3.37;1.37;;;;;21.30;100753.00;;;;2071179;28;20206;-47
2022/11/10 02:28:54;;;;;;;3.83;1.50;;;;;21.30;100749.00;;;;2071063;28;20234;-47
2022/11/10 02:29:54;;;;;;;3.83;1.33;;;;;21.40;100744.00;;;;2070520;28;20225;-47
2022/11/10 02:30:54;;;;;;;4.00;1.60;;;;;21.40;100748.00;;;;2078533;28;20494;-47
2022/11/10 02:31:55;;;;;;;2.63;1.00;;;;;21.40;100742.00;;;;2077295;28;20236;-46
2022/11/10 02:32:55;;;;;;;3.00;1.20;;;;;21.40;100742.00;;;;2071035;28;20240;-47
2022/11/10 02:33:56;;;;;;;3.63;1.23;;;;;21.30;100742.00;;;;2070491;28;20282;-48
2022/11/10 02:34:56;;;;;;;3.17;1.63;;;;;21.30;100741.00;;;;2078494;28;20259;-48
2022/11/10 02:35:56;;;;;;;2.73;1.43;;;;;21.40;100739.00;;;;2079220;28;20572;-47
2022/11/10 02:36:56;;;;;;;3.73;1.40;;;;;21.30;100757.00;;;;2079149;28;20256;-47
2022/11/10 02:37:57;;;;;;;4.47;1.30;;;;;21.40;100745.00;;;;2078958;28;20209;-46
2022/11/10 02:38:57;;;;;;;4.33;1.30;;;;;21.40;100748.00;;;;2079080;28;20405;-47
2022/11/10 02:39:57;;;;;;;2.90;1.30;;;;;21.30;100758.00;;;;2077677;28;20681;-46
2022/11/10 02:40:58;;;;;;;4.43;1.50;;;;;21.40;100640.00;;;;2070787;28;20905;-46
2022/11/10 02:41:58;;;;;;;3.93;1.40;;;;;21.30;100752.00;;;;2069992;28;20557;-48
2022/11/10 02:42:58;;;;;;;5.10;1.43;;;;;21.30;100750.00;;;;2070827;28;20642;-46
2022/11/10 02:43:59;;;;;;;2.60;1.20;;;;;21.30;100757.00;;;;2070487;28;20226;-47
2022/11/10 02:44:59;;;;;;;2.60;1.20;;;;;21.30;100752.00;;;;2078455;28;20214;-46
2022/11/10 02:45:59;;;;;;;4.83;1.43;;;;;21.30;100750.00;;;;2078320;28;20231;-47
2022/11/10 02:47:00;;;;;;;2.73;1.03;;;;;21.30;100754.00;;;;2079054;28;20221;-47
2022/11/10 02:48:00;;;;;;;3.83;1.70;;;;;21.30;100759.00;;;;2079306;28;20586;-47
2022/11/10 02:49:00;;;;;;;3.30;1.27;;;;;21.30;100751.00;;;;2078360;28;20655;-47
2022/11/10 02:50:01;;;;;;;3.93;1.40;;;;;21.30;100758.00;;;;2078405;28;20568;-47
2022/11/10 02:51:01;;;;;;;3.83;1.37;;;;;21.30;100757.00;;;;2079223;28;20587;-47
2022/11/10 02:52:01;;;;;;;4.37;1.50;;;;;21.30;100748.00;;;;2077384;28;20700;-46
2022/11/10 02:53:02;;;;;;;3.77;1.50;;;;;21.30;100758.00;;;;2076710;28;20677;-47
2022/11/10 02:54:02;;;;;;;5.13;1.63;;;;;21.30;100758.00;;;;2078614;28;20704;-47
2022/11/10 02:55:03;;;;;;;2.63;1.30;;;;;21.30;100763.00;;;;2078922;28;20232;-46
2022/11/10 02:56:04;;;;;;;3.60;1.33;;;;;21.30;100767.00;;;;2071873;28;20214;-46
2022/11/10 02:57:04;;;;;;;3.78;1.60;;;;;21.30;100759.00;;;;2070258;28;20223;-47
2022/11/10 02:58:05;;;;;;;2.50;1.23;;;;;21.30;100751.00;;;;2070134;28;20585;-47
2022/11/10 02:59:05;;;;;;;3.03;1.33;;;;;21.30;100761.00;;;;2070542;28;20221;-47
2022/11/10 03:00:06;;;;;;;2.80;1.43;;;;;21.30;100759.00;;;;2070958;28;20238;-47
2022/11/10 03:01:06;;;;;;;3.53;1.50;;;;;21.30;100757.00;;;;2078367;28;20225;-47
2022/11/10 03:02:06;;;;;;;2.57;1.13;;;;;21.30;100755.00;;;;2078032;28;20456;-47
2022/11/10 03:03:07;;;;;;;4.10;1.60;;;;;21.30;100761.00;;;;2078969;28;20237;-47
2022/11/10 03:04:07;;;;;;;3.47;1.27;;;;;21.30;100764.00;;;;2078728;28;20220;-47
2022/11/10 03:05:07;;;;;;;4.53;1.37;;;;;21.30;100764.00;;;;2078980;28;20213;-47
2022/11/10 03:06:08;;;;;;;3.67;1.47;;;;;21.30;100773.00;;;;2078794;28;20221;-47
2022/11/10 03:07:08;;;;;;;3.40;1.33;;;;;21.30;100778.00;;;;2078913;28;20799;-46
2022/11/10 03:08:08;;;;;;;2.87;1.20;;;;;21.30;100784.00;;;;2078860;28;21002;-47
2022/11/10 03:09:09;;;;;;;3.60;1.20;;;;;21.30;100788.00;;;;2078800;28;20825;-47
2022/11/10 03:10:09;;;;;;;4.10;1.47;;;;;21.30;100778.00;;;;2078544;28;20664;-47
2022/11/10 03:11:10;;;;;;;3.90;1.63;;;;;21.30;100786.00;;;;2076382;28;20776;-47
2022/11/10 03:12:10;;;;;;;3.63;1.20;;;;;21.20;100788.00;;;;2069288;28;20994;-46
2022/11/10 03:13:10;;;;;;;5.30;1.47;;;;;21.30;100785.00;;;;2074363;28;20221;-47
2022/11/10 03:14:11;;;;;;;2.47;1.20;;;;;21.30;100780.00;;;;2078902;28;20229;-47
2022/11/10 03:15:11;;;;;;;5.00;1.27;;;;;21.30;100791.00;;;;2079054;28;20227;-47
2022/11/10 03:16:12;;;;;;;4.77;1.80;;;;;21.20;100777.00;;;;2078633;28;20220;-47
2022/11/10 03:17:12;;;;;;;3.60;1.40;;;;;21.30;100787.00;;;;2071768;28;20221;-47
2022/11/10 03:18:12;;;;;;;2.23;1.30;;;;;21.30;100784.00;;;;2075071;28;20217;-47
2022/11/10 03:19:13;;;;;;;3.80;1.60;;;;;21.30;100779.00;;;;2078915;28;20290;-47
2022/11/10 03:20:13;;;;;;;3.50;1.63;;;;;21.30;100778.00;;;;2078879;28;20279;-47
2022/11/10 03:21:14;;;;;;;3.37;1.60;;;;;21.30;100783.00;;;;2078908;28;20283;-48
2022/11/10 03:22:14;;;;;;;1.93;1.13;;;;;21.30;100780.00;;;;2077615;28;20221;-47
2022/11/10 03:23:16;;;;;;;3.40;1.57;;;;;21.20;100780.00;;;;2078970;28;20221;-47
2022/11/10 03:24:16;;;;;;;5.20;1.50;;;;;21.20;100777.00;;;;2078469;28;20228;-47
2022/11/10 03:25:17;;;;;;;2.20;1.00;;;;;21.20;100784.00;;;;2078950;28;20214;-46
2022/11/10 03:26:17;;;;;;;6.47;1.90;;;;;21.30;100780.00;;;;2078843;28;20221;-46
2022/11/10 03:27:17;;;;;;;5.20;1.47;;;;;21.30;100780.00;;;;2078728;28;20304;-47
2022/11/10 03:28:17;;;;;;;2.97;1.03;;;;;21.30;100780.00;;;;2078817;28;20217;-46
2022/11/10 03:29:18;;;;;;;2.77;1.13;;;;;21.20;100780.00;;;;2079007;28;20217;-46
2022/11/10 03:30:18;;;;;;;3.50;1.80;;;;;21.30;100792.00;;;;2078580;28;20330;-47
2022/11/10 03:31:18;;;;;;;6.13;1.80;;;;;21.30;100786.00;;;;2079012;28;20232;-46
2022/11/10 03:32:19;;;;;;;4.43;1.40;;;;;21.30;100784.00;;;;2077984;28;20220;-47
2022/11/10 03:33:19;;;;;;;4.00;1.50;;;;;21.30;100777.00;;;;2078695;28;20237;-47
2022/11/10 03:34:19;;;;;;;2.43;1.40;;;;;21.20;100792.00;;;;2075300;28;20228;-47
2022/11/10 03:35:20;;;;;;;5.17;1.60;;;;;21.20;100779.00;;;;2070923;28;20218;-46
2022/11/10 03:36:20;;;;;;;4.80;1.30;;;;;21.20;100791.00;;;;2070026;28;20210;-46
2022/11/10 03:37:20;;;;;;;2.57;1.17;;;;;21.20;100796.00;;;;2070305;28;20218;-46
2022/11/10 03:38:21;;;;;;;3.97;1.90;;;;;20.90;100797.00;;;;2070247;28;20210;-45
2022/11/10 03:39:23;;;;;;;4.03;1.33;;;;;21.20;100797.00;;;;2069815;28;20210;-46
2022/11/10 03:40:23;;;;;;;3.55;1.30;;;;;21.20;100809.00;;;;2078412;28;20210;-46
2022/11/10 03:41:23;;;;;;;3.00;1.30;;;;;21.20;100803.00;;;;2078888;28;20210;-47
2022/11/10 03:42:24;;;;;;;2.97;1.40;;;;;21.20;100803.00;;;;2078026;28;20213;-46
2022/11/10 03:43:24;;;;;;;2.60;1.10;;;;;21.20;100809.00;;;;2079063;28;20633;-47
2022/11/10 03:44:25;;;;;;;1.93;1.10;;;;;21.20;100806.00;;;;2078959;28;20217;-46
2022/11/10 03:45:25;;;;;;;2.67;1.10;;;;;21.20;100812.00;;;;2078353;28;20225;-46
2022/11/10 03:46:25;;;;;;;2.20;1.03;;;;;21.20;100808.00;;;;2070131;28;20214;-47
2022/11/10 03:47:26;;;;;;;4.13;1.60;;;;;21.30;100818.00;;;;2074494;28;20642;-48
2022/11/10 03:48:26;;;;;;;4.30;1.40;;;;;21.20;100820.00;;;;2070985;28;20218;-47
2022/11/10 03:49:26;;;;;;;2.53;1.23;;;;;21.20;100813.00;;;;2070948;28;20871;-47
2022/11/10 03:50:27;;;;;;;4.33;1.70;;;;;21.20;100821.00;;;;2073562;28;20628;-46
2022/11/10 03:51:27;;;;;;;4.03;1.63;;;;;21.20;100815.00;;;;2078751;28;20217;-46
2022/11/10 03:52:27;;;;;;;3.27;1.47;;;;;21.20;100819.00;;;;2079923;28;20261;-46
2022/11/10 03:53:28;;;;;;;4.23;1.27;;;;;21.20;100824.00;;;;2074862;28;20217;-46
2022/11/10 03:54:28;;;;;;;3.23;1.37;;;;;21.20;100844.00;;;;2072002;28;20218;-46
2022/11/10 03:55:28;;;;;;;2.70;1.30;;;;;21.20;100827.00;;;;2074228;28;20265;-47
2022/11/10 03:56:28;;;;;;;3.87;1.00;;;;;21.20;100823.00;;;;2080192;28;20218;-47
2022/11/10 03:57:29;;;;;;;2.47;1.10;;;;;21.20;100827.00;;;;2080583;28;20210;-47
2022/11/10 03:58:29;;;;;;;3.83;1.40;;;;;21.20;100836.00;;;;2074577;28;20217;-48
2022/11/10 03:59:30;;;;;;;4.40;1.33;;;;;21.20;100828.00;;;;2072391;28;20252;-47
2022/11/10 04:00:30;;;;;;;2.33;1.10;;;;;21.20;100831.00;;;;2070814;28;20972;-48
2022/11/10 04:01:30;;;;;;;3.50;1.27;;;;;21.20;100838.00;;;;2076815;28;20324;-47
2022/11/10 04:02:31;;;;;;;3.40;1.60;;;;;21.20;100837.00;;;;2076920;28;20247;-47
2022/11/10 04:03:31;;;;;;;3.80;1.10;;;;;21.20;100828.00;;;;2070398;28;20206;-47
2022/11/10 04:09:50;;;;;;;4.13;1.50;;;;;21.20;100850.00;;;;2071802;28;20239;-47
2022/11/10 04:10:50;;;;;;;4.80;1.07;;;;;21.10;100845.00;;;;2075371;28;20310;-46
2022/11/10 04:15:48;;;;;;;3.20;1.70;;;;;21.20;100857.00;;;;2072822;28;20674;-47
2022/11/10 04:16:48;;;;;;;2.60;1.37;;;;;21.20;100859.00;;;;2076674;28;20222;-47
2022/11/10 04:17:49;;;;;;;4.43;1.47;;;;;21.10;100873.00;;;;2074942;28;20249;-47
2022/11/10 04:18:49;;;;;;;3.47;1.15;;;;;21.20;100869.00;;;;2072067;28;20225;-48
2022/11/10 04:19:50;;;;;;;2.63;1.50;;;;;21.20;100862.00;;;;2079715;28;20217;-47
2022/11/10 04:20:54;;;;;;;4.47;1.70;;;;;21.10;100861.00;;;;2076470;28;20213;-47
2022/11/10 04:21:55;;;;;;;3.25;1.20;;;;;21.10;100870.00;;;;2077196;28;20224;-46
2022/11/10 04:24:14;;;;;;;5.47;1.33;;;;;21.10;100873.00;;;;2075033;28;20209;-47
2022/11/10 04:25:14;;;;;;;4.50;1.57;;;;;21.10;100871.00;;;;2072900;28;20218;-47
2022/11/10 04:26:30;;;;;;;3.40;1.47;;;;;21.10;100874.00;;;;2076508;28;20216;-47
2022/11/10 04:27:31;;;;;;;2.92;1.20;;;;;21.10;100880.00;;;;2079867;28;20573;-47
2022/11/10 04:28:31;;;;;;;5.50;1.93;;;;;21.20;100887.00;;;;2079166;28;20233;-47
2022/11/10 04:29:31;;;;;;;4.47;1.50;;;;;21.20;100882.00;;;;2072122;28;20253;-47
2022/11/10 04:30:32;;;;;;;3.13;1.30;;;;;21.10;100885.00;;;;2071906;28;20700;-48
2022/11/10 04:31:33;;;;;;;4.43;1.40;;;;;21.10;100888.00;;;;2071505;28;20214;-47
2022/11/10 04:32:33;;;;;;;5.40;1.57;;;;;21.10;100886.00;;;;2073719;28;20214;-47
2022/11/10 04:33:34;;;;;;;3.97;1.20;;;;;21.10;100887.00;;;;2071685;28;20449;-47
2022/11/10 04:34:34;;;;;;;3.53;1.30;;;;;21.10;100889.00;;;;2071795;28;20326;-47
2022/11/10 04:35:35;;;;;;;2.37;1.07;;;;;21.10;100884.00;;;;2071962;28;20217;-47
2022/11/10 04:36:36;;;;;;;2.77;1.50;;;;;21.10;100886.00;;;;2071734;28;20230;-47
2022/11/10 04:37:36;;;;;;;2.90;1.40;;;;;21.10;100878.00;;;;2070578;28;20210;-46
2022/11/10 04:38:36;;;;;;;3.27;1.20;;;;;21.10;100902.00;;;;2066694;28;20320;-46
2022/11/10 04:39:37;;;;;;;3.30;1.43;;;;;21.10;100890.00;;;;2079306;28;20794;-46
2022/11/10 04:40:37;;;;;;;4.47;1.80;;;;;21.10;100883.00;;;;2074573;28;20217;-46
2022/11/10 04:41:37;;;;;;;3.17;1.47;;;;;21.10;100894.00;;;;2071422;28;20240;-46
2022/11/10 04:42:38;;;;;;;3.20;1.50;;;;;21.10;100892.00;;;;2071052;28;20230;-47
2022/11/10 04:43:39;;;;;;;4.00;1.30;;;;;21.10;100889.00;;;;2071871;28;20275;-47
2022/11/10 04:44:39;;;;;;;4.63;1.53;;;;;21.10;100894.00;;;;2071942;28;20214;-48
2022/11/10 04:45:39;;;;;;;3.90;1.27;;;;;21.10;100892.00;;;;2077089;28;20677;-47
2022/11/10 04:46:40;;;;;;;3.13;1.30;;;;;21.10;100893.00;;;;2080141;28;20767;-47
2022/11/10 04:47:40;;;;;;;5.00;1.57;;;;;21.10;100901.00;;;;2079844;28;20201;-47
2022/11/10 04:48:40;;;;;;;4.27;1.60;;;;;21.10;100904.00;;;;2080053;28;20313;-46
2022/11/10 04:49:41;;;;;;;5.20;1.50;;;;;21.10;100901.00;;;;2075245;28;20249;-46
2022/11/10 04:50:41;;;;;;;3.47;1.37;;;;;21.10;100916.00;;;;2071868;28;20214;-47
2022/11/10 04:51:41;;;;;;;2.97;1.30;;;;;21.10;100911.00;;;;2071734;28;20294;-47
2022/11/10 04:52:42;;;;;;;3.77;1.20;;;;;21.10;100924.00;;;;2070866;28;20279;-47
2022/11/10 04:53:42;;;;;;;4.60;1.50;;;;;21.10;100909.00;;;;2071546;28;20206;-47
2022/11/10 04:54:42;;;;;;;5.73;1.60;;;;;21.10;100916.00;;;;2071902;28;20569;-47
2022/11/10 04:55:43;;;;;;;3.30;1.30;;;;;21.10;100921.00;;;;2075299;28;20210;-46
2022/11/10 04:56:43;;;;;;;4.53;1.50;;;;;21.10;100931.00;;;;2080371;28;20220;-48
2022/11/10 04:57:43;;;;;;;3.60;1.30;;;;;21.10;100926.00;;;;2079709;28;20214;-47
2022/11/10 04:58:44;;;;;;;2.93;1.17;;;;;21.10;100926.00;;;;2079494;28;20210;-48
2022/11/10 04:59:44;;;;;;;2.30;1.03;;;;;21.10;100934.00;;;;2079995;28;20241;-47
2022/11/10 05:00:45;;;;;;;4.30;1.33;;;;;21.10;100931.00;;;;2078634;28;20221;-47
2022/11/10 05:01:45;;;;;;;4.27;1.47;;;;;21.10;100931.00;;;;2079598;28;20217;-47
2022/11/10 05:02:45;;;;;;;3.33;1.30;;;;;21.10;100929.00;;;;2073531;28;20229;-47
2022/11/10 05:03:46;;;;;;;4.53;1.30;;;;;21.10;100930.00;;;;2071508;28;20626;-47
2022/11/10 05:04:46;;;;;;;6.13;1.43;;;;;21.10;100929.00;;;;2071637;28;20587;-47
2022/11/10 05:05:48;;;;;;;4.30;1.50;;;;;21.10;100930.00;;;;2071942;28;20218;-47
2022/11/10 05:06:48;;;;;;;5.07;1.98;;;;;21.10;100937.00;;;;2071788;28;20225;-46
2022/11/10 05:07:48;;;;;;;4.00;1.50;;;;;21.10;100939.00;;;;2071700;28;20603;-47
2022/11/10 05:08:48;;;;;;;3.00;1.20;;;;;21.10;100935.00;;;;2071676;28;20277;-47
2022/11/10 05:09:49;;;;;;;5.73;1.50;;;;;21.10;100870.00;;;;2071598;28;20233;-47
2022/11/10 05:10:49;;;;;;;3.30;1.43;;;;;21.10;100945.00;;;;2072131;28;20269;-47
2022/11/10 05:11:49;;;;;;;3.37;1.50;;;;;21.10;100949.00;;;;2078446;28;20296;-47
2022/11/10 05:12:54;;;;;;;3.30;1.43;;;;;21.10;100940.00;;;;2079038;28;20213;-48
2022/11/10 05:13:54;;;;;;;3.22;1.27;;;;;21.10;100944.00;;;;2079857;28;20217;-47